Time;durP1;ratioP1;P1;durP2;ratioP2;P2;SDS_P1;SDS_P2;PMS_P1;PMS_P2;Temp;Humidity;BMP_temperature;BMP_pressure;BME280_temperature;BME280_humidity;BME280_pressure;Samples;Min_cycle;Max_cycle;Signal;HPM_P1;HPM_P2
2022/07/18 00:01:58;;;;;;;5.90;2.03;;;17.10;99.90;;;;;;5022251;28;20025;-72
2022/07/18 00:04:24;;;;;;;2.80;1.85;;;17.10;99.90;;;;;;5022026;28;20022;-73
2022/07/18 00:06:50;;;;;;;5.50;2.13;;;17.00;99.90;;;;;;5004518;28;20426;-73
2022/07/18 00:09:15;;;;;;;3.40;1.85;;;17.00;99.90;;;;;;5021406;28;20050;-74
2022/07/18 00:11:41;;;;;;;6.65;1.48;;;17.00;99.90;;;;;;5004697;28;20045;-72
2022/07/18 00:14:07;;;;;;;2.38;1.75;;;16.90;99.90;;;;;;5022405;28;20492;-72
2022/07/18 00:16:32;;;;;;;5.03;2.60;;;16.70;99.90;;;;;;5022091;28;20026;-72
2022/07/18 00:18:59;;;;;;;2.25;1.55;;;16.80;99.90;;;;;;5022327;28;20144;-72
2022/07/18 00:21:26;;;;;;;4.97;1.77;;;16.70;99.90;;;;;;5020745;28;20029;-73
2022/07/18 00:23:51;;;;;;;2.95;1.85;;;16.70;99.90;;;;;;5021866;28;20026;-73
2022/07/18 00:26:17;;;;;;;2.25;1.67;;;16.70;99.90;;;;;;5022188;28;20041;-72
2022/07/18 00:28:42;;;;;;;2.85;1.63;;;16.60;99.90;;;;;;5022063;28;20069;-73
2022/07/18 00:31:08;;;;;;;5.65;1.80;;;16.70;99.90;;;;;;5004335;28;20033;-73
2022/07/18 00:33:35;;;;;;;3.92;2.45;;;16.60;99.90;;;;;;5004605;28;20149;-71
2022/07/18 00:36:00;;;;;;;4.13;2.08;;;16.60;99.90;;;;;;5022029;28;20038;-73
2022/07/18 00:38:26;;;;;;;3.67;1.80;;;16.50;99.90;;;;;;5021477;28;20030;-72
2022/07/18 00:40:51;;;;;;;4.10;2.05;;;16.50;99.90;;;;;;5022002;28;20036;-72
2022/07/18 00:43:17;;;;;;;2.15;1.23;;;16.40;99.90;;;;;;5003985;28;20041;-73
2022/07/18 00:45:47;;;;;;;6.32;2.47;;;16.40;99.90;;;;;;5021755;28;20033;-73
2022/07/18 00:48:13;;;;;;;5.35;1.75;;;16.60;99.90;;;;;;5021753;28;20173;-71
2022/07/18 00:50:41;;;;;;;5.25;2.13;;;16.60;99.90;;;;;;5021704;28;20025;-72
2022/07/18 00:53:10;;;;;;;4.60;2.70;;;16.50;99.90;;;;;;5021386;28;20030;-73
2022/07/18 00:55:38;;;;;;;5.82;2.15;;;16.60;99.90;;;;;;5004600;28;20032;-72
2022/07/18 00:58:03;;;;;;;5.70;2.63;;;16.60;99.90;;;;;;5021454;28;20022;-72
2022/07/18 01:03:13;;;;;;;5.47;1.75;;;16.60;99.90;;;;;;5021410;28;20033;-73
2022/07/18 01:05:38;;;;;;;3.63;2.13;;;16.60;99.90;;;;;;5004025;28;20025;-72
2022/07/18 01:08:04;;;;;;;3.92;2.03;;;16.50;99.90;;;;;;5021505;28;20046;-72
2022/07/18 01:10:30;;;;;;;2.28;1.80;;;16.50;99.90;;;;;;5021840;28;20038;-72
2022/07/18 01:12:55;;;;;;;5.18;2.40;;;16.40;99.90;;;;;;5021557;28;20073;-72
2022/07/18 01:15:21;;;;;;;5.90;1.98;;;16.60;99.90;;;;;;5021158;28;20025;-72
2022/07/18 01:17:46;;;;;;;5.35;2.35;;;16.50;99.90;;;;;;5021663;28;20028;-72
2022/07/18 01:20:12;;;;;;;3.45;1.95;;;16.40;99.90;;;;;;5021412;28;20019;-73
2022/07/18 01:22:41;;;;;;;6.80;2.60;;;16.40;99.90;;;;;;5021736;28;20024;-73
2022/07/18 01:25:07;;;;;;;3.63;2.15;;;16.40;99.90;;;;;;5021276;28;20025;-73
2022/07/18 01:27:38;;;;;;;2.88;1.83;;;16.40;99.90;;;;;;5021369;28;20030;-73
2022/07/18 01:30:06;;;;;;;5.90;1.77;;;16.40;99.90;;;;;;5003702;28;20030;-71
2022/07/18 01:32:32;;;;;;;4.05;2.50;;;16.40;99.90;;;;;;5021155;28;20042;-72
2022/07/18 01:34:57;;;;;;;5.60;2.33;;;16.40;99.90;;;;;;5022201;28;20556;-72
2022/07/18 01:37:23;;;;;;;3.22;1.88;;;16.40;99.90;;;;;;5007204;28;20022;-73
2022/07/18 01:39:49;;;;;;;5.13;2.05;;;16.40;99.90;;;;;;5007097;28;20030;-71
2022/07/18 01:42:15;;;;;;;5.32;2.47;;;16.40;99.90;;;;;;5024828;28;20473;-72
2022/07/18 01:44:42;;;;;;;4.45;2.22;;;16.40;99.90;;;;;;5007571;28;20026;-71
2022/07/18 01:47:09;;;;;;;3.47;1.63;;;16.40;99.90;;;;;;5025019;28;20014;-74
2022/07/18 01:49:36;;;;;;;3.67;2.13;;;16.40;99.90;;;;;;5024587;28;20022;-72
2022/07/18 01:52:02;;;;;;;6.07;2.78;;;16.40;99.90;;;;;;5025108;28;20037;-72
2022/07/18 01:54:31;;;;;;;4.07;2.10;;;16.30;99.90;;;;;;5024377;28;20045;-72
2022/07/18 01:57:00;;;;;;;3.50;1.83;;;16.30;99.90;;;;;;5024270;28;20537;-72
2022/07/18 01:59:25;;;;;;;4.57;2.47;;;16.30;99.90;;;;;;5024172;28;20026;-72
2022/07/18 02:01:51;;;;;;;3.47;2.08;;;16.20;99.90;;;;;;5024293;28;20021;-71
2022/07/18 02:04:17;;;;;;;4.00;1.90;;;16.10;99.90;;;;;;5024822;28;20406;-71
2022/07/18 02:06:43;;;;;;;4.20;2.15;;;16.10;99.90;;;;;;5007064;28;20544;-73
2022/07/18 02:09:09;;;;;;;2.85;2.13;;;16.00;99.90;;;;;;5002625;28;20129;-71
2022/07/18 02:11:35;;;;;;;3.38;1.67;;;15.90;99.90;;;;;;5004967;28;20026;-71
2022/07/18 02:14:02;;;;;;;3.70;1.98;;;15.90;99.90;;;;;;5004733;28;20042;-72
2022/07/18 02:16:28;;;;;;;4.18;2.20;;;15.80;99.90;;;;;;5004163;28;20030;-73
2022/07/18 02:18:54;;;;;;;2.85;1.50;;;15.80;99.90;;;;;;5003643;28;20386;-72
2022/07/18 02:21:20;;;;;;;5.97;1.88;;;15.80;99.90;;;;;;5004653;28;20027;-71
2022/07/18 02:23:46;;;;;;;5.82;1.55;;;15.80;99.90;;;;;;5003834;28;20094;-73
2022/07/18 02:26:12;;;;;;;4.72;1.58;;;15.70;99.90;;;;;;5004497;28;20494;-72
2022/07/18 02:28:38;;;;;;;6.47;1.90;;;15.70;99.90;;;;;;5004574;28;20057;-71
2022/07/18 02:31:04;;;;;;;6.18;2.53;;;15.70;99.90;;;;;;5004602;28;20026;-72
2022/07/18 02:33:30;;;;;;;3.92;1.50;;;15.70;99.90;;;;;;5003863;28;20129;-71
2022/07/18 02:35:56;;;;;;;3.85;2.33;;;15.60;99.90;;;;;;5004288;28;20061;-73
2022/07/18 02:38:21;;;;;;;3.25;1.85;;;15.60;99.90;;;;;;5003803;28;20022;-72
2022/07/18 02:40:47;;;;;;;3.97;2.03;;;15.60;99.90;;;;;;5004483;28;20022;-72
2022/07/18 02:43:12;;;;;;;4.97;2.10;;;15.60;99.90;;;;;;5003971;28;20045;-74
2022/07/18 02:45:38;;;;;;;3.13;1.63;;;15.50;99.90;;;;;;5003665;28;20026;-74
2022/07/18 02:48:04;;;;;;;3.30;1.95;;;15.60;99.90;;;;;;5004610;28;20046;-72
2022/07/18 02:50:29;;;;;;;2.28;1.70;;;15.60;99.90;;;;;;5003941;28;20026;-73
2022/07/18 02:52:56;;;;;;;6.25;2.00;;;15.50;99.90;;;;;;5003960;28;20069;-72
2022/07/18 02:55:23;;;;;;;3.60;2.08;;;15.60;99.90;;;;;;5002826;28;20050;-74
2022/07/18 02:57:49;;;;;;;3.08;1.73;;;15.60;99.90;;;;;;5003876;28;20054;-71
2022/07/18 03:00:16;;;;;;;2.67;1.90;;;15.40;99.90;;;;;;5003588;28;20078;-73
2022/07/18 03:02:43;;;;;;;4.63;2.00;;;15.40;99.90;;;;;;5004094;28;20045;-72
2022/07/18 03:05:09;;;;;;;6.13;2.88;;;15.40;99.90;;;;;;5003954;28;20038;-74
2022/07/18 03:07:34;;;;;;;4.20;2.17;;;15.40;99.90;;;;;;5004037;28;20018;-73
2022/07/18 03:10:00;;;;;;;2.17;1.60;;;15.40;99.90;;;;;;5002396;28;20052;-71
2022/07/18 03:12:26;;;;;;;8.18;2.58;;;15.40;99.90;;;;;;5003396;28;20133;-72
2022/07/18 03:14:51;;;;;;;4.00;1.98;;;15.30;99.90;;;;;;5003767;28;20105;-72
2022/07/18 03:17:17;;;;;;;3.15;1.73;;;15.30;99.90;;;;;;5003758;28;20030;-73
2022/07/18 03:19:42;;;;;;;2.60;1.73;;;15.30;99.90;;;;;;5001655;28;20029;-72
2022/07/18 03:22:11;;;;;;;4.45;1.90;;;15.30;99.90;;;;;;5003899;28;20030;-73
2022/07/18 03:24:37;;;;;;;3.75;1.98;;;15.30;99.90;;;;;;5003106;28;20034;-73
2022/07/18 03:27:03;;;;;;;3.60;1.70;;;15.30;99.90;;;;;;5002038;28;20105;-72
2022/07/18 03:29:28;;;;;;;4.40;2.10;;;15.20;99.90;;;;;;5003509;28;20545;-72
2022/07/18 03:31:54;;;;;;;2.42;1.63;;;15.20;99.90;;;;;;5001271;28;20554;-72
2022/07/18 03:34:20;;;;;;;2.50;1.67;;;15.20;99.90;;;;;;5003276;28;20027;-71
2022/07/18 03:36:45;;;;;;;6.30;2.47;;;15.20;99.90;;;;;;5003314;28;20054;-73
2022/07/18 03:39:12;;;;;;;3.70;2.28;;;15.20;99.90;;;;;;5002752;28;20117;-73
2022/07/18 03:41:38;;;;;;;5.22;2.22;;;15.10;99.90;;;;;;5002152;28;20390;-73
2022/07/18 03:44:04;;;;;;;3.95;1.80;;;15.10;99.90;;;;;;5003182;28;20026;-72
2022/07/18 03:46:30;;;;;;;5.47;1.80;;;15.10;99.90;;;;;;5002746;28;20108;-72
2022/07/18 03:48:56;;;;;;;7.50;2.67;;;15.10;99.90;;;;;;5003034;28;20022;-72
2022/07/18 03:51:21;;;;;;;5.18;2.67;;;15.10;99.90;;;;;;5002880;28;20027;-73
2022/07/18 03:53:47;;;;;;;4.30;2.33;;;15.10;99.90;;;;;;5002638;28;20106;-72
2022/07/18 03:56:13;;;;;;;4.75;2.33;;;15.10;99.90;;;;;;5003025;28;20022;-72
2022/07/18 03:58:39;;;;;;;2.83;1.58;;;15.00;99.90;;;;;;5001011;28;20041;-73
2022/07/18 04:01:04;;;;;;;5.07;2.95;;;15.10;99.90;;;;;;5000401;28;20030;-71
2022/07/18 04:03:30;;;;;;;6.22;2.13;;;15.10;99.90;;;;;;4997863;28;20037;-72
2022/07/18 04:05:55;;;;;;;3.75;1.88;;;15.20;99.90;;;;;;5002503;28;20041;-71
2022/07/18 04:08:21;;;;;;;5.03;2.25;;;15.20;99.90;;;;;;5007772;28;20449;-70
2022/07/18 04:10:47;;;;;;;5.20;2.30;;;15.20;99.90;;;;;;5022496;28;20030;-70
2022/07/18 04:13:13;;;;;;;3.13;2.05;;;15.30;99.90;;;;;;5021280;28;20045;-71
2022/07/18 04:15:39;;;;;;;3.95;2.35;;;15.40;99.90;;;;;;5018633;28;20040;-71
2022/07/18 04:18:06;;;;;;;8.40;2.45;;;15.40;99.90;;;;;;5018027;28;20080;-71
2022/07/18 04:20:38;;;;;;;5.63;2.63;;;15.50;99.90;;;;;;5017852;28;20180;-72
2022/07/18 04:23:05;;;;;;;9.20;2.35;;;15.50;99.90;;;;;;5017611;28;20025;-71
2022/07/18 04:25:36;;;;;;;7.78;1.92;;;15.60;99.90;;;;;;5016025;28;20034;-71
2022/07/18 04:28:03;;;;;;;5.15;2.38;;;15.70;99.90;;;;;;5021239;28;20042;-71
2022/07/18 04:30:30;;;;;;;5.13;2.03;;;15.70;99.90;;;;;;5021792;28;20466;-70
2022/07/18 04:32:56;;;;;;;4.28;2.05;;;15.70;99.90;;;;;;5018918;28;20133;-71
2022/07/18 04:35:23;;;;;;;3.25;1.90;;;15.80;99.90;;;;;;5020440;28;20030;-71
2022/07/18 04:37:50;;;;;;;4.88;2.33;;;15.80;99.90;;;;;;5014191;28;20056;-71
2022/07/18 04:40:17;;;;;;;6.10;2.40;;;15.80;99.90;;;;;;5021020;28;20030;-72
2022/07/18 04:42:43;;;;;;;4.35;2.03;;;15.80;99.90;;;;;;5021649;28;20049;-71
2022/07/18 04:45:10;;;;;;;3.88;2.00;;;15.80;99.90;;;;;;5021863;28;20061;-72
2022/07/18 04:47:35;;;;;;;3.83;2.47;;;15.80;99.90;;;;;;5022189;28;20026;-72
2022/07/18 04:50:02;;;;;;;4.93;2.08;;;15.80;99.90;;;;;;5002922;28;20060;-71
2022/07/18 04:52:42;;;;;;;5.38;1.98;;;15.80;99.90;;;;;;5021598;28;20046;-73
2022/07/18 04:55:09;;;;;;;11.35;2.08;;;15.90;99.90;;;;;;5021741;28;20038;-73
2022/07/18 04:57:36;;;;;;;7.70;1.55;;;15.90;99.90;;;;;;5021956;28;20018;-71
2022/07/18 05:00:09;;;;;;;7.60;2.22;;;15.90;99.90;;;;;;5021266;28;20065;-71
2022/07/18 05:02:34;;;;;;;4.20;1.90;;;16.00;99.90;;;;;;5021929;28;20046;-71
2022/07/18 05:05:00;;;;;;;2.92;2.00;;;16.00;99.90;;;;;;5021070;28;20049;-72
2022/07/18 05:07:26;;;;;;;8.73;2.45;;;16.00;99.90;;;;;;5021705;28;20018;-72
2022/07/18 05:09:51;;;;;;;2.65;1.58;;;16.00;99.90;;;;;;5024138;28;20100;-73
2022/07/18 05:12:18;;;;;;;5.63;2.20;;;16.20;99.90;;;;;;5025357;28;20030;-70
2022/07/18 05:14:48;;;;;;;3.28;1.60;;;16.20;99.90;;;;;;5025744;28;20026;-71
2022/07/18 05:17:13;;;;;;;2.35;1.70;;;16.20;99.90;;;;;;5022289;28;20044;-72
2022/07/18 05:19:39;;;;;;;4.78;2.47;;;16.20;99.90;;;;;;5023322;28;20093;-73
2022/07/18 05:22:05;;;;;;;3.05;1.52;;;16.30;99.90;;;;;;5022745;28;20096;-73
2022/07/18 05:24:30;;;;;;;3.67;1.80;;;16.20;99.90;;;;;;5021934;28;21327;-71
2022/07/18 05:26:56;;;;;;;6.15;1.88;;;16.40;99.90;;;;;;5006832;28;20030;-73
2022/07/18 05:29:21;;;;;;;4.60;1.80;;;16.50;99.90;;;;;;5005237;28;20025;-73
2022/07/18 05:31:47;;;;;;;3.20;1.80;;;16.50;99.90;;;;;;5021757;28;20026;-72
2022/07/18 05:34:13;;;;;;;3.65;1.38;;;16.60;99.90;;;;;;5021850;28;20045;-71
2022/07/18 05:36:38;;;;;;;3.83;1.98;;;16.60;99.90;;;;;;5007208;28;20033;-74
2022/07/18 05:39:04;;;;;;;2.13;1.73;;;16.70;99.90;;;;;;5023293;28;20031;-71
2022/07/18 05:41:29;;;;;;;7.05;2.25;;;16.70;99.90;;;;;;5024384;28;20061;-71
2022/07/18 05:43:55;;;;;;;5.75;2.53;;;16.80;99.90;;;;;;5005783;28;20377;-71
2022/07/18 05:46:21;;;;;;;3.22;2.03;;;16.70;99.90;;;;;;5022225;28;20030;-74
2022/07/18 05:48:46;;;;;;;4.60;2.22;;;16.70;99.90;;;;;;5023416;28;20083;-72
2022/07/18 05:51:12;;;;;;;4.28;1.63;;;16.70;99.90;;;;;;5021919;28;20030;-73
2022/07/18 05:53:38;;;;;;;3.03;1.60;;;16.80;99.90;;;;;;5022631;28;20065;-73
2022/07/18 05:56:04;;;;;;;4.07;2.13;;;16.80;99.90;;;;;;5024588;28;20053;-71
2022/07/18 05:58:33;;;;;;;2.45;1.75;;;16.80;99.90;;;;;;5021625;28;20030;-71
2022/07/18 06:00:59;;;;;;;3.42;1.90;;;16.90;99.90;;;;;;5005874;28;20029;-71
2022/07/18 06:03:24;;;;;;;5.03;1.50;;;16.90;99.90;;;;;;5023724;28;20026;-70
2022/07/18 06:05:50;;;;;;;3.53;1.98;;;17.00;99.90;;;;;;5022952;28;20026;-71
2022/07/18 06:08:16;;;;;;;4.53;2.35;;;17.00;99.90;;;;;;5022867;28;20053;-71
2022/07/18 06:10:41;;;;;;;6.40;2.00;;;17.10;99.90;;;;;;5024555;28;20065;-70
2022/07/18 06:13:07;;;;;;;4.25;2.25;;;17.00;99.90;;;;;;5004779;28;20478;-70
2022/07/18 06:15:33;;;;;;;3.22;1.95;;;17.10;99.90;;;;;;5023682;28;20109;-71
2022/07/18 06:17:58;;;;;;;13.05;2.28;;;17.10;99.90;;;;;;5022776;28;20537;-72
2022/07/18 06:20:24;;;;;;;4.90;2.13;;;17.20;99.90;;;;;;5023535;28;20041;-71
2022/07/18 06:22:53;;;;;;;4.18;1.95;;;17.20;99.90;;;;;;5024317;28;20052;-73
2022/07/18 06:25:19;;;;;;;2.63;1.65;;;17.20;99.90;;;;;;5024077;28;20086;-72
2022/07/18 06:27:44;;;;;;;6.57;2.08;;;17.30;99.90;;;;;;5001428;28;20044;-71
2022/07/18 06:30:11;;;;;;;2.95;1.50;;;17.30;99.90;;;;;;5024455;28;20026;-70
2022/07/18 06:32:37;;;;;;;3.67;2.50;;;17.30;99.90;;;;;;5022548;28;20054;-72
2022/07/18 06:35:03;;;;;;;2.75;1.77;;;17.30;99.90;;;;;;5005944;28;20030;-72
2022/07/18 06:37:29;;;;;;;2.05;1.25;;;17.40;99.90;;;;;;5022966;28;20065;-70
2022/07/18 06:39:54;;;;;;;3.47;1.67;;;17.50;99.90;;;;;;5022708;28;20034;-71
2022/07/18 06:42:20;;;;;;;4.05;1.90;;;17.60;99.90;;;;;;5021071;28;20048;-72
2022/07/18 06:44:46;;;;;;;9.27;2.45;;;17.70;99.90;;;;;;5020319;28;20452;-72
2022/07/18 06:47:12;;;;;;;9.05;1.95;;;17.80;99.90;;;;;;5019172;28;20030;-74
2022/07/18 06:49:37;;;;;;;3.17;1.77;;;18.00;99.90;;;;;;5019020;28;20053;-71
2022/07/18 06:52:03;;;;;;;4.55;1.33;;;18.00;99.90;;;;;;5022356;28;20401;-70
2022/07/18 06:54:29;;;;;;;6.30;1.75;;;18.10;99.90;;;;;;5018721;28;20147;-71
2022/07/18 06:56:55;;;;;;;2.05;1.52;;;18.20;99.90;;;;;;5019959;28;20029;-71
2022/07/18 06:59:21;;;;;;;2.10;1.52;;;18.30;99.90;;;;;;5011504;28;20026;-70
2022/07/18 07:01:47;;;;;;;5.05;1.70;;;18.50;99.90;;;;;;5020758;28;20030;-71
2022/07/18 07:04:12;;;;;;;3.25;1.10;;;18.60;99.90;;;;;;5021544;28;20061;-72
2022/07/18 07:06:38;;;;;;;6.43;1.75;;;18.70;99.90;;;;;;5021324;28;20045;-71
2022/07/18 07:09:05;;;;;;;1.30;1.08;;;18.90;99.90;;;;;;5019350;28;20514;-71
2022/07/18 07:11:31;;;;;;;4.93;1.20;;;19.00;99.90;;;;;;5021322;28;20465;-70
2022/07/18 07:13:57;;;;;;;2.22;1.50;;;19.10;99.90;;;;;;5022674;28;20030;-74
2022/07/18 07:16:22;;;;;;;6.10;2.00;;;19.20;99.90;;;;;;5020545;28;20019;-69
2022/07/18 07:18:48;;;;;;;4.07;1.30;;;19.30;99.90;;;;;;5023406;28;20033;-71
2022/07/18 07:21:14;;;;;;;4.15;1.42;;;19.40;99.90;;;;;;5022853;28;20068;-73
2022/07/18 07:23:42;;;;;;;2.25;1.02;;;19.50;99.90;;;;;;5022897;28;20062;-73
2022/07/18 07:26:08;;;;;;;0.95;0.85;;;19.50;99.90;;;;;;5023212;28;20076;-74
2022/07/18 07:28:35;;;;;;;1.13;0.90;;;19.60;99.90;;;;;;5023284;28;20467;-71
2022/07/18 07:31:00;;;;;;;2.05;1.23;;;19.70;99.90;;;;;;5021909;28;20030;-72
2022/07/18 07:33:26;;;;;;;7.97;1.65;;;19.70;99.90;;;;;;5021884;28;20068;-72
2022/07/18 07:35:51;;;;;;;2.40;0.98;;;19.90;99.90;;;;;;5022673;28;20022;-73
2022/07/18 07:38:22;;;;;;;1.65;1.10;;;20.00;99.90;;;;;;5020975;28;20136;-73
2022/07/18 07:40:48;;;;;;;2.00;1.25;;;20.00;99.90;;;;;;5021481;28;20505;-71
2022/07/18 07:43:15;;;;;;;1.30;0.90;;;20.00;99.90;;;;;;5020471;28;20022;-72
2022/07/18 07:45:42;;;;;;;3.13;0.90;;;20.10;99.90;;;;;;5021053;28;20026;-73
2022/07/18 07:48:08;;;;;;;2.17;1.27;;;20.30;99.90;;;;;;5019108;28;20021;-73
2022/07/18 07:50:34;;;;;;;3.53;1.63;;;20.40;99.90;;;;;;5020999;28;20502;-72
2022/07/18 07:53:00;;;;;;;1.95;0.73;;;20.50;99.90;;;;;;5020828;28;20121;-72
2022/07/18 07:55:26;;;;;;;2.35;0.90;;;20.60;99.90;;;;;;5021744;28;20022;-73
2022/07/18 07:57:52;;;;;;;8.20;0.90;;;20.80;99.90;;;;;;5021521;28;20040;-70
2022/07/18 08:00:18;;;;;;;2.28;1.10;;;20.80;99.90;;;;;;5022471;28;20085;-74
2022/07/18 08:02:54;;;;;;;4.53;1.17;;;20.90;99.90;;;;;;5021941;28;20042;-71
2022/07/18 08:05:20;;;;;;;1.25;0.70;;;21.00;99.90;;;;;;5021807;28;20030;-70
2022/07/18 08:07:45;;;;;;;6.30;1.08;;;21.10;99.90;;;;;;5021926;28;20053;-73
2022/07/18 08:10:11;;;;;;;3.20;0.98;;;21.30;99.90;;;;;;5020227;28;20025;-72
2022/07/18 08:12:36;;;;;;;13.15;0.93;;;21.30;99.90;;;;;;5017485;28;20065;-73
2022/07/18 08:15:02;;;;;;;2.67;0.93;;;21.50;99.90;;;;;;5021231;28;20025;-71
2022/07/18 08:17:28;;;;;;;1.00;0.40;;;21.60;99.90;;;;;;5022230;28;20038;-72
2022/07/18 08:19:53;;;;;;;4.22;0.80;;;21.70;99.90;;;;;;5021725;28;20057;-75
2022/07/18 08:22:19;;;;;;;1.40;0.85;;;21.80;99.90;;;;;;5003276;28;20084;-71
2022/07/18 08:24:45;;;;;;;1.65;0.70;;;21.80;99.90;;;;;;5020444;28;20044;-72
2022/07/18 08:27:11;;;;;;;0.82;0.70;;;21.90;99.90;;;;;;5021019;28;20045;-73
2022/07/18 08:29:37;;;;;;;0.63;0.60;;;21.90;99.90;;;;;;5021287;28;20030;-72
2022/07/18 08:32:02;;;;;;;1.15;0.70;;;22.00;99.90;;;;;;5019510;28;20038;-70
2022/07/18 08:34:28;;;;;;;1.90;0.75;;;22.10;99.90;;;;;;5021407;28;20026;-70
2022/07/18 08:36:54;;;;;;;0.65;0.50;;;22.20;99.90;;;;;;5022127;28;20026;-71
2022/07/18 08:39:19;;;;;;;17.65;0.90;;;22.30;99.90;;;;;;5020939;28;20386;-70
2022/07/18 08:41:46;;;;;;;3.90;0.90;;;22.40;99.90;;;;;;5021401;28;20021;-72
2022/07/18 08:44:12;;;;;;;0.70;0.63;;;22.50;99.90;;;;;;5021713;28;20018;-71
2022/07/18 08:46:40;;;;;;;4.05;1.00;;;22.50;99.90;;;;;;5020675;28;20026;-71
2022/07/18 08:49:07;;;;;;;5.32;0.93;;;22.70;99.90;;;;;;5021816;28;20092;-72
2022/07/18 08:51:34;;;;;;;1.23;0.65;;;22.80;99.90;;;;;;5020659;28;20032;-74
2022/07/18 08:54:01;;;;;;;4.53;0.85;;;22.80;99.90;;;;;;5020707;28;20521;-71
2022/07/18 08:56:27;;;;;;;3.22;0.80;;;22.80;99.90;;;;;;5021315;28;20022;-74
2022/07/18 08:58:53;;;;;;;0.75;0.55;;;22.90;99.90;;;;;;5021917;28;20026;-73
2022/07/18 09:01:18;;;;;;;2.17;1.15;;;23.00;99.90;;;;;;5021411;28;20485;-72
2022/07/18 09:03:44;;;;;;;2.47;0.80;;;23.10;99.90;;;;;;5021923;28;20034;-75
2022/07/18 09:06:13;;;;;;;1.38;0.80;;;23.30;99.90;;;;;;5020922;28;20470;-73
2022/07/18 09:08:56;;;;;;;1.17;0.82;;;23.30;99.90;;;;;;5018878;28;20088;-73
2022/07/18 09:11:22;;;;;;;2.60;0.85;;;23.40;99.90;;;;;;5018735;28;20459;-73
2022/07/18 09:13:47;;;;;;;2.28;1.08;;;23.50;99.90;;;;;;4994862;28;20048;-74
2022/07/18 09:16:15;;;;;;;3.25;1.35;;;23.50;99.90;;;;;;5021088;28;20129;-76
2022/07/18 09:18:45;;;;;;;3.58;1.75;;;23.70;99.90;;;;;;5021095;28;20026;-74
2022/07/18 09:21:13;;;;;;;4.78;1.20;;;23.70;99.90;;;;;;5021143;28;20033;-70
2022/07/18 09:23:41;;;;;;;5.35;1.08;;;23.90;99.90;;;;;;5020918;28;20018;-72
2022/07/18 09:26:08;;;;;;;4.03;0.77;;;24.10;99.90;;;;;;5020299;28;20072;-71
2022/07/18 09:28:46;;;;;;;0.68;0.68;;;24.20;99.90;;;;;;5018394;28;20022;-73
2022/07/18 09:31:27;;;;;;;6.40;1.23;;;24.30;99.90;;;;;;5020370;28;20026;-75
2022/07/18 09:34:03;;;;;;;3.10;1.02;;;24.40;99.90;;;;;;5019882;28;20065;-72
2022/07/18 09:36:30;;;;;;;2.35;0.98;;;24.50;99.90;;;;;;5020971;28;20040;-71
2022/07/18 09:38:55;;;;;;;1.98;0.98;;;24.50;99.90;;;;;;5021157;28;20018;-76
2022/07/18 09:41:24;;;;;;;1.17;1.00;;;24.40;99.90;;;;;;5021155;28;20036;-73
2022/07/18 09:43:50;;;;;;;5.28;1.20;;;24.40;99.90;;;;;;5020858;28;20065;-74
2022/07/18 09:46:15;;;;;;;2.90;1.17;;;24.40;99.90;;;;;;5003662;28;20026;-77
2022/07/18 09:48:41;;;;;;;3.65;1.60;;;24.40;99.90;;;;;;5021660;28;20094;-71
2022/07/18 09:51:07;;;;;;;2.42;1.30;;;24.50;99.90;;;;;;5021475;28;20117;-72
2022/07/18 09:53:43;;;;;;;1.60;1.10;;;24.60;99.90;;;;;;5021376;28;20037;-70
2022/07/18 09:56:30;;;;;;;2.95;0.80;;;24.70;99.90;;;;;;5022176;28;20030;-72
2022/07/18 09:58:56;;;;;;;5.43;1.60;;;24.80;99.90;;;;;;5024192;28;20037;-70
2022/07/18 10:01:23;;;;;;;4.50;1.08;;;24.90;99.90;;;;;;5024650;28;20025;-70
2022/07/18 10:03:49;;;;;;;3.80;1.52;;;25.00;99.90;;;;;;5024504;28;20094;-72
2022/07/18 10:06:16;;;;;;;2.65;1.60;;;25.00;99.90;;;;;;5024676;28;20030;-73
2022/07/18 10:08:42;;;;;;;11.73;1.13;;;25.10;99.90;;;;;;5024573;28;20042;-69
2022/07/18 10:11:08;;;;;;;2.50;1.42;;;25.20;99.90;;;;;;5024180;28;20024;-71
2022/07/18 10:13:35;;;;;;;11.82;2.17;;;25.20;99.90;;;;;;5024491;28;20029;-73
2022/07/18 10:16:01;;;;;;;4.30;1.17;;;25.30;99.90;;;;;;5023760;28;20030;-74
2022/07/18 10:18:33;;;;;;;2.38;1.00;;;25.40;99.90;;;;;;5024359;28;20025;-72
2022/07/18 10:21:02;;;;;;;2.00;1.15;;;25.50;99.90;;;;;;5023977;28;20024;-72
2022/07/18 10:23:49;;;;;;;5.10;1.52;;;25.50;99.90;;;;;;5023462;28;20029;-76
2022/07/18 10:26:24;;;;;;;3.75;1.70;;;25.60;99.90;;;;;;5023972;28;20477;-71
2022/07/18 10:28:56;;;;;;;2.42;1.02;;;25.70;99.90;;;;;;5006761;28;20029;-70
2022/07/18 10:31:38;;;;;;;1.27;0.75;;;25.60;99.90;;;;;;5023613;28;20030;-74
2022/07/18 10:34:07;;;;;;;3.90;1.67;;;25.60;99.90;;;;;;5023821;28;20037;-74
2022/07/18 10:36:34;;;;;;;3.10;1.27;;;25.70;99.90;;;;;;5023885;28;20492;-71
2022/07/18 10:39:19;;;;;;;6.18;1.88;;;25.70;99.90;;;;;;5023698;28;20018;-71
2022/07/18 10:41:48;;;;;;;4.38;1.50;;;25.80;99.90;;;;;;5024101;28;20505;-72
2022/07/18 10:44:23;;;;;;;4.70;2.22;;;25.90;99.90;;;;;;5023497;28;20037;-76
2022/07/18 10:47:08;;;;;;;2.70;1.35;;;26.00;99.90;;;;;;5023814;28;20022;-71
2022/07/18 10:49:49;;;;;;;6.10;1.80;;;26.10;99.90;;;;;;5023933;28;20032;-71
2022/07/18 10:52:29;;;;;;;4.22;1.80;;;26.30;99.90;;;;;;5023449;28;20030;-74
2022/07/18 10:55:08;;;;;;;3.33;1.70;;;26.40;99.90;;;;;;5023701;28;20029;-75
2022/07/18 10:57:41;;;;;;;1.90;1.35;;;26.50;99.90;;;;;;5021578;28;20018;-69
2022/07/18 11:00:10;;;;;;;5.47;1.67;;;26.50;99.90;;;;;;5021355;28;20046;-70
2022/07/18 11:02:37;;;;;;;3.38;1.67;;;26.70;99.90;;;;;;5021175;28;20026;-71
2022/07/18 11:05:23;;;;;;;1.83;1.20;;;26.90;99.90;;;;;;5005875;28;20614;-72
2022/07/18 11:08:13;;;;;;;5.72;1.88;;;27.00;99.90;;;;;;5021964;28;20431;-77
2022/07/18 11:10:41;;;;;;;4.07;1.48;;;27.10;99.90;;;;;;5014585;28;20046;-71
2022/07/18 11:13:28;;;;;;;3.38;1.75;;;27.30;99.90;;;;;;5022720;28;20036;-74
2022/07/18 11:16:19;;;;;;;2.72;1.50;;;27.40;99.90;;;;;;5022920;28;20053;-76
2022/07/18 11:18:50;;;;;;;5.60;1.77;;;27.50;99.90;;;;;;5022937;28;20044;-72
2022/07/18 11:21:27;;;;;;;12.65;1.98;;;27.50;99.90;;;;;;5021349;28;20060;-72
2022/07/18 11:23:52;;;;;;;2.08;1.45;;;27.50;99.90;;;;;;5022988;28;20037;-71
2022/07/18 11:26:20;;;;;;;5.63;2.13;;;27.60;99.90;;;;;;5022170;28;20026;-71
2022/07/18 11:28:50;;;;;;;5.40;2.05;;;27.60;99.90;;;;;;5019806;28;20064;-71
2022/07/18 11:31:16;;;;;;;4.15;1.83;;;27.80;99.90;;;;;;5019823;28;20137;-71
2022/07/18 11:33:46;;;;;;;4.55;1.58;;;27.80;99.90;;;;;;5020171;28;20049;-71
2022/07/18 11:36:14;;;;;;;1.85;1.30;;;27.90;99.90;;;;;;5012114;28;20034;-70
2022/07/18 11:38:47;;;;;;;3.63;1.60;;;28.10;99.90;;;;;;5014662;28;20069;-72
2022/07/18 11:41:13;;;;;;;3.20;1.55;;;28.20;99.90;;;;;;5010836;28;20405;-72
2022/07/18 11:43:39;;;;;;;4.32;1.77;;;28.30;99.90;;;;;;5019832;28;20059;-70
2022/07/18 11:46:09;;;;;;;5.45;1.50;;;28.40;99.90;;;;;;5014581;28;20030;-70
2022/07/18 11:48:36;;;;;;;1.50;1.02;;;28.50;99.90;;;;;;5019691;28;20034;-77
2022/07/18 11:51:08;;;;;;;2.80;1.92;;;28.60;99.90;;;;;;5021081;28;20034;-75
2022/07/18 11:53:33;;;;;;;3.58;1.95;;;28.50;99.90;;;;;;5019477;28;20041;-72
2022/07/18 11:56:04;;;;;;;2.70;1.23;;;28.60;99.90;;;;;;5016597;28;20022;-71
2022/07/18 11:58:36;;;;;;;2.75;1.35;;;28.80;99.90;;;;;;5019364;28;20029;-70
2022/07/18 12:01:03;;;;;;;2.45;1.33;;;29.00;99.90;;;;;;5021916;28;20034;-71
2022/07/18 12:03:29;;;;;;;6.53;1.85;;;29.10;99.90;;;;;;5003666;28;20026;-72
2022/07/18 12:05:54;;;;;;;2.33;1.33;;;29.20;99.90;;;;;;5022316;28;20024;-71
2022/07/18 12:08:35;;;;;;;5.53;1.67;;;29.20;99.90;;;;;;5022148;28;20042;-72
2022/07/18 12:11:11;;;;;;;1.70;1.13;;;29.10;99.10;;;;;;5013931;28;20023;-75
2022/07/18 12:13:45;;;;;;;2.70;1.48;;;29.10;99.60;;;;;;5011288;28;20037;-77
2022/07/18 12:16:31;;;;;;;3.30;1.92;;;29.10;98.20;;;;;;4999213;28;20045;-77
2022/07/18 12:19:24;;;;;;;4.70;1.88;;;29.10;98.30;;;;;;5017586;28;20069;-70
2022/07/18 12:22:03;;;;;;;7.03;1.85;;;29.10;99.40;;;;;;5017621;28;20061;-70
2022/07/18 12:24:35;;;;;;;4.57;1.77;;;29.20;99.90;;;;;;5021098;28;20045;-71
2022/07/18 12:27:26;;;;;;;1.85;1.30;;;29.30;99.70;;;;;;5020983;28;20485;-71
2022/07/18 12:30:17;;;;;;;3.08;1.67;;;29.30;98.70;;;;;;5003538;28;20508;-71
2022/07/18 12:32:59;;;;;;;4.35;1.45;;;29.30;98.50;;;;;;5021133;28;20037;-73
2022/07/18 12:35:32;;;;;;;3.55;1.65;;;29.40;98.90;;;;;;5021634;28;20040;-71
2022/07/18 12:38:06;;;;;;;3.40;1.40;;;29.50;99.80;;;;;;5019833;28;20390;-72
2022/07/18 12:40:46;;;;;;;11.43;1.55;;;29.60;99.70;;;;;;5021541;28;20493;-71
2022/07/18 12:43:15;;;;;;;3.53;1.58;;;29.70;99.10;;;;;;5020820;28;20027;-71
2022/07/18 12:45:41;;;;;;;2.10;1.20;;;29.60;98.90;;;;;;5021238;28;20069;-70
2022/07/18 12:48:10;;;;;;;2.20;1.20;;;29.60;99.40;;;;;;5021649;28;20056;-71
2022/07/18 12:50:37;;;;;;;3.63;1.55;;;29.70;99.50;;;;;;5020683;28;20062;-73
2022/07/18 12:53:03;;;;;;;1.15;1.00;;;29.80;99.30;;;;;;5003403;28;20037;-71